createdAt,value
2023-01-13T05:42:26.658Z,6.85
2023-01-13T05:45:41.424Z,6.85
2023-01-13T05:48:55.409Z,6.53
2023-01-13T05:52:09.338Z,6.74
2023-01-13T05:55:23.506Z,6.81
2023-01-13T05:58:39.219Z,6.40
2023-01-13T06:01:53.139Z,6.77
2023-01-13T06:05:07.131Z,6.13
2023-01-13T06:08:20.956Z,6.18
2023-01-13T06:11:34.892Z,6.44
2023-01-13T06:14:49.956Z,6.66
2023-01-13T06:18:05.339Z,6.64
2023-01-13T06:21:19.343Z,6.64
2023-01-13T06:24:33.321Z,6.67
2023-01-13T06:27:46.954Z,6.86
2023-01-13T06:31:03.301Z,6.80
2023-01-13T06:34:17.320Z,6.83
2023-01-13T06:37:31.262Z,6.36
2023-01-13T06:40:45.059Z,6.87
2023-01-13T06:43:57.911Z,7.03
2023-01-13T06:47:13.260Z,6.92
2023-01-13T06:50:27.362Z,7.25
2023-01-13T06:53:41.320Z,7.31
2023-01-13T06:56:54.940Z,7.32
2023-01-13T07:00:10.341Z,7.46
2023-01-13T07:03:26.127Z,7.58
2023-01-13T07:06:39.998Z,7.50
2023-01-13T07:09:53.606Z,7.31
2023-01-13T07:13:24.766Z,7.00
2023-01-13T07:16:38.703Z,6.91
2023-01-13T07:19:53.775Z,6.57
2023-01-13T07:23:07.622Z,6.77
2023-01-13T07:26:21.248Z,6.69
2023-01-13T07:29:35.376Z,6.22
2023-01-13T07:32:49.311Z,6.01
2023-01-13T07:36:05.225Z,6.50
2023-01-13T07:39:19.368Z,6.39
2023-01-13T07:42:50.551Z,5.84
2023-01-13T07:46:05.746Z,6.08
2023-01-13T07:49:19.703Z,5.75
2023-01-13T07:52:34.658Z,6.30
2023-01-13T07:55:48.585Z,6.37
2023-01-13T07:59:02.551Z,6.16
2023-01-13T08:02:16.366Z,6.54
2023-01-13T08:05:30.400Z,6.72
2023-01-13T08:08:45.438Z,6.75
2023-01-13T08:12:13.033Z,6.80
2023-01-13T08:15:27.132Z,7.04
2023-01-13T08:18:40.787Z,6.50
2023-01-13T08:21:54.703Z,6.90
2023-01-13T08:25:10.731Z,6.95
2023-01-13T08:28:25.138Z,6.60
2023-01-13T08:31:39.123Z,6.89
2023-01-13T08:34:52.703Z,6.77
2023-01-13T08:38:06.631Z,6.88
2023-01-13T08:41:35.808Z,6.66
2023-01-13T08:44:49.782Z,6.99
2023-01-13T08:48:04.429Z,6.85
2023-01-13T08:51:18.373Z,6.04
2023-01-13T08:54:32.014Z,6.53
2023-01-13T08:57:47.242Z,6.82
2023-01-13T09:01:06.362Z,6.42
2023-01-13T09:04:23.342Z,6.14
2023-01-13T09:07:37.772Z,6.10
2023-01-13T09:10:51.953Z,5.95
2023-01-13T09:14:06.298Z,6.29
2023-01-13T09:17:20.516Z,6.01
2023-01-13T09:20:34.540Z,5.94
2023-01-13T09:23:48.285Z,6.10
2023-01-13T09:27:04.087Z,5.87
2023-01-13T09:30:20.838Z,6.00
2023-01-13T09:33:52.890Z,6.29
2023-01-13T09:37:07.335Z,5.85
2023-01-13T09:40:22.984Z,5.83
2023-01-13T09:43:56.611Z,6.34
2023-01-13T09:47:15.890Z,6.75
2023-01-13T09:50:46.557Z,7.31
2023-01-13T09:54:01.824Z,7.36
2023-01-13T09:57:16.328Z,7.62
2023-01-13T10:00:36.549Z,7.38
2023-01-13T10:03:52.040Z,7.07
2023-01-13T10:07:06.104Z,7.58
2023-01-13T10:10:23.639Z,7.47
2023-01-13T10:13:37.780Z,7.86
2023-01-13T10:16:53.764Z,7.74
2023-01-13T10:20:16.044Z,7.36
2023-01-13T10:23:41.964Z,7.17
2023-01-13T10:26:59.051Z,7.46
2023-01-13T10:30:17.378Z,7.84
2023-01-13T10:33:34.790Z,7.82
2023-01-13T10:37:01.659Z,7.30
2023-01-13T10:40:18.545Z,7.72
2023-01-13T10:43:32.696Z,8.16
2023-01-13T10:46:53.967Z,7.90
2023-01-13T10:50:24.688Z,7.84
2023-01-13T10:53:47.196Z,8.13
2023-01-13T10:57:17.542Z,8.00
2023-01-13T11:00:32.532Z,7.77
2023-01-13T11:03:48.257Z,8.12
2023-01-13T11:07:02.301Z,8.40
2023-01-13T11:10:21.355Z,8.07
2023-01-13T11:13:36.911Z,8.21
2023-01-13T11:16:53.729Z,8.52
2023-01-13T11:20:16.243Z,8.54
2023-01-13T11:23:33.230Z,8.49
2023-01-13T11:26:50.837Z,8.19
2023-01-13T11:30:09.986Z,8.31
2023-01-13T11:33:31.965Z,9.01
2023-01-13T11:36:47.841Z,8.11
2023-01-13T11:40:04.213Z,8.72
2023-01-13T11:43:23.661Z,7.76
2023-01-13T11:46:38.059Z,8.22
2023-01-13T11:49:52.073Z,7.86
2023-01-13T11:53:18.733Z,8.97
2023-01-13T11:57:03.324Z,8.78
2023-01-13T12:00:28.201Z,8.66
2023-01-13T12:03:42.122Z,8.31
2023-01-13T12:07:01.941Z,8.71
2023-01-13T12:10:18.887Z,8.62
2023-01-13T12:13:40.267Z,8.30
2023-01-13T12:16:56.111Z,8.04
2023-01-13T12:20:18.567Z,8.39
2023-01-13T12:23:36.189Z,8.65
2023-01-13T12:26:53.556Z,8.18
2023-01-13T12:30:19.311Z,8.78
2023-01-13T12:33:43.862Z,8.64
2023-01-13T12:37:02.610Z,8.55
2023-01-13T12:40:23.132Z,8.71
2023-01-13T12:43:55.197Z,8.32
2023-01-13T12:47:36.678Z,8.67
2023-01-13T12:51:00.733Z,8.95
2023-01-13T12:54:57.017Z,8.40
2023-01-13T12:58:18.265Z,8.22
2023-01-13T13:01:39.480Z,8.57
2023-01-13T13:04:55.189Z,8.94
2023-01-13T13:08:16.860Z,8.69
2023-01-13T13:11:56.330Z,8.57
2023-01-13T13:15:21.493Z,8.97
2023-01-13T13:18:36.307Z,9.04
2023-01-13T13:22:19.551Z,9.15
2023-01-13T13:25:35.340Z,8.98
2023-01-13T13:28:55.093Z,9.11
2023-01-13T13:33:00.989Z,9.15
2023-01-13T13:36:23.403Z,9.62
2023-01-13T13:39:55.632Z,9.56
2023-01-13T13:43:30.639Z,9.55
2023-01-13T13:46:49.471Z,9.33
2023-01-13T13:50:07.746Z,9.35
2023-01-13T13:53:21.696Z,9.10
2023-01-13T13:56:38.451Z,9.45
2023-01-13T13:59:55.916Z,9.62
2023-01-13T14:03:22.485Z,9.36
2023-01-13T14:06:36.530Z,9.79
2023-01-13T14:09:52.936Z,9.24
2023-01-13T14:13:15.017Z,9.22
2023-01-13T14:16:30.366Z,9.91
2023-01-13T14:19:47.822Z,9.57
2023-01-13T14:23:01.899Z,9.27
2023-01-13T14:26:16.622Z,9.40
2023-01-13T14:29:30.624Z,9.19
2023-01-13T14:32:45.908Z,9.48
2023-01-13T14:36:16.628Z,9.48
2023-01-13T14:39:38.860Z,9.45
2023-01-13T14:42:58.825Z,9.71
2023-01-13T14:46:12.781Z,9.37
2023-01-13T14:49:32.134Z,9.39
2023-01-13T14:52:49.355Z,9.23
2023-01-13T14:56:36.532Z,9.60
2023-01-13T14:59:51.955Z,8.82
2023-01-13T15:03:07.704Z,9.37
2023-01-13T15:06:26.422Z,9.17
2023-01-13T15:09:41.326Z,9.41
2023-01-13T15:12:56.181Z,9.60
2023-01-13T15:16:16.574Z,9.56
2023-01-13T15:19:30.554Z,9.26
2023-01-13T15:22:45.576Z,9.82
2023-01-13T15:26:00.994Z,8.83
2023-01-13T15:29:15.259Z,8.89
2023-01-13T15:32:29.166Z,8.84
2023-01-13T15:35:43.370Z,8.93
2023-01-13T15:38:58.798Z,9.20
2023-01-13T15:42:36.272Z,9.03
2023-01-13T15:46:07.573Z,8.93
2023-01-13T15:49:24.683Z,8.76
2023-01-13T15:52:38.589Z,9.58
2023-01-13T15:55:54.521Z,9.59
2023-01-13T15:59:10.981Z,9.72
2023-01-13T16:02:25.400Z,9.57
2023-01-13T16:05:39.396Z,9.59
2023-01-13T16:08:53.353Z,9.53
2023-01-13T16:12:08.396Z,9.48
2023-01-13T16:15:24.967Z,9.72
2023-01-13T16:18:38.928Z,9.78
2023-01-13T16:21:53.158Z,9.93
